sensor_id;sensor_type;location;lat;lon;timestamp;temperature;humidity
3300;DHT22;1662;49.310;8.134;2024-01-30T00:02:14;5.70;99.90
3300;DHT22;1662;49.310;8.134;2024-01-30T00:04:39;5.70;99.90
3300;DHT22;1662;49.310;8.134;2024-01-30T00:07:05;5.70;99.90
3300;DHT22;1662;49.310;8.134;2024-01-30T00:09:30;5.60;99.90
3300;DHT22;1662;49.310;8.134;2024-01-30T00:11:58;5.90;99.90
3300;DHT22;1662;49.310;8.134;2024-01-30T00:14:24;5.50;99.90
3300;DHT22;1662;49.310;8.134;2024-01-30T00:16:51;5.50;99.90
3300;DHT22;1662;49.310;8.134;2024-01-30T00:19:19;5.40;99.90
3300;DHT22;1662;49.310;8.134;2024-01-30T00:21:44;5.40;99.90
3300;DHT22;1662;49.310;8.134;2024-01-30T00:24:10;5.40;99.90
3300;DHT22;1662;49.310;8.134;2024-01-30T00:26:35;5.40;99.90
3300;DHT22;1662;49.310;8.134;2024-01-30T00:29:01;5.40;99.90
3300;DHT22;1662;49.310;8.134;2024-01-30T00:31:27;5.40;99.90
3300;DHT22;1662;49.310;8.134;2024-01-30T00:33:53;5.30;99.90
3300;DHT22;1662;49.310;8.134;2024-01-30T00:36:18;5.30;99.90
3300;DHT22;1662;49.310;8.134;2024-01-30T00:38:44;5.30;99.90
3300;DHT22;1662;49.310;8.134;2024-01-30T00:41:10;5.30;99.90
3300;DHT22;1662;49.310;8.134;2024-01-30T00:43:36;5.30;99.90
3300;DHT22;1662;49.310;8.134;2024-01-30T00:46:02;5.30;99.90
3300;DHT22;1662;49.310;8.134;2024-01-30T00:48:27;5.20;99.90
3300;DHT22;1662;49.310;8.134;2024-01-30T00:50:55;5.20;99.90
3300;DHT22;1662;49.310;8.134;2024-01-30T00:53:21;5.10;99.90
3300;DHT22;1662;49.310;8.134;2024-01-30T00:55:47;5.10;99.90
3300;DHT22;1662;49.310;8.134;2024-01-30T00:58:12;5.10;99.90
3300;DHT22;1662;49.310;8.134;2024-01-30T01:00:39;5.10;99.90
3300;DHT22;1662;49.310;8.134;2024-01-30T01:03:04;5.00;99.90
3300;DHT22;1662;49.310;8.134;2024-01-30T01:05:30;5.00;99.90
3300;DHT22;1662;49.310;8.134;2024-01-30T01:07:56;5.00;99.90
3300;DHT22;1662;49.310;8.134;2024-01-30T01:10:21;5.00;99.90
3300;DHT22;1662;49.310;8.134;2024-01-30T01:12:48;4.90;99.90
3300;DHT22;1662;49.310;8.134;2024-01-30T01:15:14;4.90;99.90
3300;DHT22;1662;49.310;8.134;2024-01-30T01:17:39;4.90;99.90
3300;DHT22;1662;49.310;8.134;2024-01-30T01:20:06;4.80;99.90
3300;DHT22;1662;49.310;8.134;2024-01-30T01:22:32;4.70;99.90
3300;DHT22;1662;49.310;8.134;2024-01-30T01:24:59;4.70;99.90
3300;DHT22;1662;49.310;8.134;2024-01-30T01:27:25;4.70;99.90
3300;DHT22;1662;49.310;8.134;2024-01-30T01:29:51;4.60;99.90
3300;DHT22;1662;49.310;8.134;2024-01-30T01:32:17;4.60;99.90
3300;DHT22;1662;49.310;8.134;2024-01-30T01:34:43;4.50;99.90
3300;DHT22;1662;49.310;8.134;2024-01-30T01:37:09;4.50;99.90
3300;DHT22;1662;49.310;8.134;2024-01-30T01:39:37;4.50;99.90
3300;DHT22;1662;49.310;8.134;2024-01-30T01:42:02;4.50;99.90
3300;DHT22;1662;49.310;8.134;2024-01-30T01:44:28;4.50;99.90
3300;DHT22;1662;49.310;8.134;2024-01-30T01:46:54;4.50;99.90
3300;DHT22;1662;49.310;8.134;2024-01-30T01:49:21;4.40;99.90
3300;DHT22;1662;49.310;8.134;2024-01-30T01:51:48;4.30;99.90
3300;DHT22;1662;49.310;8.134;2024-01-30T01:54:14;4.30;99.90
3300;DHT22;1662;49.310;8.134;2024-01-30T01:56:42;4.30;99.90
3300;DHT22;1662;49.310;8.134;2024-01-30T01:59:08;4.30;99.90
3300;DHT22;1662;49.310;8.134;2024-01-30T02:01:36;4.30;99.90
3300;DHT22;1662;49.310;8.134;2024-01-30T02:04:02;4.20;99.90
3300;DHT22;1662;49.310;8.134;2024-01-30T02:06:28;4.20;99.90
3300;DHT22;1662;49.310;8.134;2024-01-30T02:08:54;4.20;99.90
3300;DHT22;1662;49.310;8.134;2024-01-30T02:11:20;4.20;99.90
3300;DHT22;1662;49.310;8.134;2024-01-30T02:13:46;4.10;99.90
3300;DHT22;1662;49.310;8.134;2024-01-30T02:16:11;4.10;99.90
3300;DHT22;1662;49.310;8.134;2024-01-30T02:18:37;4.00;99.90
3300;DHT22;1662;49.310;8.134;2024-01-30T02:21:07;4.00;99.90
3300;DHT22;1662;49.310;8.134;2024-01-30T02:23:33;4.00;99.90
3300;DHT22;1662;49.310;8.134;2024-01-30T02:26:00;4.00;99.90
3300;DHT22;1662;49.310;8.134;2024-01-30T02:28:26;4.00;99.90
3300;DHT22;1662;49.310;8.134;2024-01-30T02:30:52;4.00;99.90
3300;DHT22;1662;49.310;8.134;2024-01-30T02:33:18;4.00;99.90
3300;DHT22;1662;49.310;8.134;2024-01-30T02:35:43;3.90;99.90
3300;DHT22;1662;49.310;8.134;2024-01-30T02:38:09;3.90;99.90
3300;DHT22;1662;49.310;8.134;2024-01-30T02:40:35;3.90;99.90
3300;DHT22;1662;49.310;8.134;2024-01-30T02:43:03;3.90;99.90
3300;DHT22;1662;49.310;8.134;2024-01-30T02:45:29;3.80;99.90
3300;DHT22;1662;49.310;8.134;2024-01-30T02:47:55;3.80;99.90
3300;DHT22;1662;49.310;8.134;2024-01-30T02:50:20;3.80;99.90
3300;DHT22;1662;49.310;8.134;2024-01-30T02:52:46;4.40;99.90
3300;DHT22;1662;49.310;8.134;2024-01-30T02:55:12;3.70;99.90
3300;DHT22;1662;49.310;8.134;2024-01-30T02:57:38;3.70;99.90
3300;DHT22;1662;49.310;8.134;2024-01-30T03:00:05;3.70;99.90
3300;DHT22;1662;49.310;8.134;2024-01-30T03:02:32;3.70;99.90
3300;DHT22;1662;49.310;8.134;2024-01-30T03:04:58;3.70;99.90
3300;DHT22;1662;49.310;8.134;2024-01-30T03:07:24;3.70;99.90
3300;DHT22;1662;49.310;8.134;2024-01-30T03:09:49;3.70;99.90
3300;DHT22;1662;49.310;8.134;2024-01-30T03:12:15;3.70;99.90
3300;DHT22;1662;49.310;8.134;2024-01-30T03:14:41;3.60;99.90
3300;DHT22;1662;49.310;8.134;2024-01-30T03:17:06;3.60;99.90
3300;DHT22;1662;49.310;8.134;2024-01-30T03:19:32;3.60;99.90
3300;DHT22;1662;49.310;8.134;2024-01-30T03:21:58;3.50;99.90
3300;DHT22;1662;49.310;8.134;2024-01-30T03:24:23;3.50;99.90
3300;DHT22;1662;49.310;8.134;2024-01-30T03:26:49;3.50;99.90
3300;DHT22;1662;49.310;8.134;2024-01-30T03:29:14;3.50;99.90
3300;DHT22;1662;49.310;8.134;2024-01-30T03:31:41;3.50;99.90
3300;DHT22;1662;49.310;8.134;2024-01-30T03:34:06;3.50;99.90
3300;DHT22;1662;49.310;8.134;2024-01-30T03:36:32;3.50;99.90
3300;DHT22;1662;49.310;8.134;2024-01-30T03:38:59;3.50;99.90
3300;DHT22;1662;49.310;8.134;2024-01-30T03:41:25;3.50;99.90
3300;DHT22;1662;49.310;8.134;2024-01-30T03:43:51;3.50;99.90
3300;DHT22;1662;49.310;8.134;2024-01-30T03:46:16;3.50;99.90
3300;DHT22;1662;49.310;8.134;2024-01-30T03:48:42;3.50;99.90
3300;DHT22;1662;49.310;8.134;2024-01-30T03:51:08;3.50;99.90
3300;DHT22;1662;49.310;8.134;2024-01-30T03:53:34;3.50;99.90
3300;DHT22;1662;49.310;8.134;2024-01-30T03:56:00;3.50;99.90
3300;DHT22;1662;49.310;8.134;2024-01-30T03:58:26;3.50;99.90
3300;DHT22;1662;49.310;8.134;2024-01-30T04:00:51;3.50;99.90
3300;DHT22;1662;49.310;8.134;2024-01-30T04:03:17;3.50;99.90
3300;DHT22;1662;49.310;8.134;2024-01-30T04:05:43;3.50;99.90
3300;DHT22;1662;49.310;8.134;2024-01-30T04:08:09;3.50;99.90
3300;DHT22;1662;49.310;8.134;2024-01-30T04:10:34;3.40;99.90
3300;DHT22;1662;49.310;8.134;2024-01-30T04:13:00;3.50;99.90
3300;DHT22;1662;49.310;8.134;2024-01-30T04:15:26;3.40;99.90
3300;DHT22;1662;49.310;8.134;2024-01-30T04:17:53;3.40;99.90
3300;DHT22;1662;49.310;8.134;2024-01-30T04:20:21;3.40;99.90
3300;DHT22;1662;49.310;8.134;2024-01-30T04:22:46;3.50;99.90
3300;DHT22;1662;49.310;8.134;2024-01-30T04:25:13;3.50;99.90
3300;DHT22;1662;49.310;8.134;2024-01-30T04:27:39;3.50;99.90
3300;DHT22;1662;49.310;8.134;2024-01-30T04:30:05;3.50;99.90
3300;DHT22;1662;49.310;8.134;2024-01-30T04:32:32;3.50;99.90
3300;DHT22;1662;49.310;8.134;2024-01-30T04:34:57;3.40;99.90
3300;DHT22;1662;49.310;8.134;2024-01-30T04:37:23;3.40;99.90
3300;DHT22;1662;49.310;8.134;2024-01-30T04:39:49;3.40;99.90
3300;DHT22;1662;49.310;8.134;2024-01-30T04:42:15;3.40;99.90
3300;DHT22;1662;49.310;8.134;2024-01-30T04:44:40;3.40;99.90
3300;DHT22;1662;49.310;8.134;2024-01-30T04:47:06;3.40;99.90
3300;DHT22;1662;49.310;8.134;2024-01-30T04:49:34;3.30;99.90
3300;DHT22;1662;49.310;8.134;2024-01-30T04:52:00;3.30;99.90
3300;DHT22;1662;49.310;8.134;2024-01-30T04:54:25;3.40;99.90
3300;DHT22;1662;49.310;8.134;2024-01-30T04:56:53;3.40;99.90
3300;DHT22;1662;49.310;8.134;2024-01-30T04:59:19;3.40;99.90
3300;DHT22;1662;49.310;8.134;2024-01-30T05:01:44;3.30;99.90
3300;DHT22;1662;49.310;8.134;2024-01-30T05:04:10;3.40;99.90
3300;DHT22;1662;49.310;8.134;2024-01-30T05:06:36;3.40;99.90
3300;DHT22;1662;49.310;8.134;2024-01-30T05:09:02;3.40;99.90
3300;DHT22;1662;49.310;8.134;2024-01-30T05:11:30;3.40;99.90
3300;DHT22;1662;49.310;8.134;2024-01-30T05:13:55;3.40;99.90
3300;DHT22;1662;49.310;8.134;2024-01-30T05:16:21;3.40;99.90
3300;DHT22;1662;49.310;8.134;2024-01-30T05:18:46;3.40;99.90
3300;DHT22;1662;49.310;8.134;2024-01-30T05:21:12;3.40;99.90
3300;DHT22;1662;49.310;8.134;2024-01-30T05:23:37;3.30;99.90
3300;DHT22;1662;49.310;8.134;2024-01-30T05:26:03;3.30;99.90
3300;DHT22;1662;49.310;8.134;2024-01-30T05:28:29;3.30;99.90
3300;DHT22;1662;49.310;8.134;2024-01-30T05:30:56;3.30;99.90
3300;DHT22;1662;49.310;8.134;2024-01-30T05:33:21;3.30;99.90
3300;DHT22;1662;49.310;8.134;2024-01-30T05:35:47;3.20;99.90
3300;DHT22;1662;49.310;8.134;2024-01-30T05:38:14;3.20;99.90
3300;DHT22;1662;49.310;8.134;2024-01-30T05:40:40;3.20;99.90
3300;DHT22;1662;49.310;8.134;2024-01-30T05:43:06;3.20;99.90
3300;DHT22;1662;49.310;8.134;2024-01-30T05:45:34;3.20;99.90
3300;DHT22;1662;49.310;8.134;2024-01-30T05:48:01;3.20;99.90
3300;DHT22;1662;49.310;8.134;2024-01-30T05:50:26;3.20;99.90
3300;DHT22;1662;49.310;8.134;2024-01-30T05:52:52;3.20;99.90
3300;DHT22;1662;49.310;8.134;2024-01-30T05:55:18;3.20;99.90
3300;DHT22;1662;49.310;8.134;2024-01-30T05:57:44;3.30;99.90
3300;DHT22;1662;49.310;8.134;2024-01-30T06:00:09;3.30;99.90
3300;DHT22;1662;49.310;8.134;2024-01-30T06:02:35;3.30;99.90
3300;DHT22;1662;49.310;8.134;2024-01-30T06:05:01;3.30;99.90
3300;DHT22;1662;49.310;8.134;2024-01-30T06:07:27;3.30;99.90
3300;DHT22;1662;49.310;8.134;2024-01-30T06:09:52;3.30;99.90
3300;DHT22;1662;49.310;8.134;2024-01-30T06:12:18;3.30;99.90
3300;DHT22;1662;49.310;8.134;2024-01-30T06:14:43;3.30;99.90
3300;DHT22;1662;49.310;8.134;2024-01-30T06:17:09;3.30;99.90
3300;DHT22;1662;49.310;8.134;2024-01-30T06:19:35;3.30;99.90
3300;DHT22;1662;49.310;8.134;2024-01-30T06:22:00;3.30;99.90
3300;DHT22;1662;49.310;8.134;2024-01-30T06:24:26;3.30;99.90
3300;DHT22;1662;49.310;8.134;2024-01-30T06:26:55;3.30;99.90
3300;DHT22;1662;49.310;8.134;2024-01-30T06:29:21;3.70;99.90
3300;DHT22;1662;49.310;8.134;2024-01-30T06:31:46;4.00;99.90
3300;DHT22;1662;49.310;8.134;2024-01-30T06:34:12;4.00;99.90
3300;DHT22;1662;49.310;8.134;2024-01-30T06:36:38;3.90;99.90
3300;DHT22;1662;49.310;8.134;2024-01-30T06:39:04;3.80;99.90
3300;DHT22;1662;49.310;8.134;2024-01-30T06:41:29;3.80;99.90
3300;DHT22;1662;49.310;8.134;2024-01-30T06:43:58;3.70;99.90
3300;DHT22;1662;49.310;8.134;2024-01-30T06:46:23;3.60;99.90
3300;DHT22;1662;49.310;8.134;2024-01-30T06:48:49;3.60;99.90
3300;DHT22;1662;49.310;8.134;2024-01-30T06:51:14;3.60;99.90
3300;DHT22;1662;49.310;8.134;2024-01-30T06:53:45;3.60;99.90
3300;DHT22;1662;49.310;8.134;2024-01-30T06:56:10;3.50;99.90
3300;DHT22;1662;49.310;8.134;2024-01-30T06:58:36;3.50;99.90
3300;DHT22;1662;49.310;8.134;2024-01-30T07:01:02;3.50;99.90
3300;DHT22;1662;49.310;8.134;2024-01-30T07:03:27;4.20;99.90
3300;DHT22;1662;49.310;8.134;2024-01-30T07:05:53;4.50;99.90
3300;DHT22;1662;49.310;8.134;2024-01-30T07:08:19;4.50;99.90
3300;DHT22;1662;49.310;8.134;2024-01-30T07:10:44;4.40;99.90
3300;DHT22;1662;49.310;8.134;2024-01-30T07:13:13;4.30;99.90
3300;DHT22;1662;49.310;8.134;2024-01-30T07:15:38;4.10;99.90
3300;DHT22;1662;49.310;8.134;2024-01-30T07:18:06;4.10;99.90
3300;DHT22;1662;49.310;8.134;2024-01-30T07:20:31;4.00;99.90
3300;DHT22;1662;49.310;8.134;2024-01-30T07:23:00;3.90;99.90
3300;DHT22;1662;49.310;8.134;2024-01-30T07:25:25;3.90;99.90
3300;DHT22;1662;49.310;8.134;2024-01-30T07:27:54;3.90;99.90
3300;DHT22;1662;49.310;8.134;2024-01-30T07:30:20;3.80;99.90
3300;DHT22;1662;49.310;8.134;2024-01-30T07:32:46;3.80;99.90
3300;DHT22;1662;49.310;8.134;2024-01-30T07:35:13;3.80;99.90
3300;DHT22;1662;49.310;8.134;2024-01-30T07:37:38;3.70;99.90
3300;DHT22;1662;49.310;8.134;2024-01-30T07:40:07;3.70;99.90
3300;DHT22;1662;49.310;8.134;2024-01-30T07:42:33;3.70;99.90
3300;DHT22;1662;49.310;8.134;2024-01-30T07:45:00;3.70;99.90
3300;DHT22;1662;49.310;8.134;2024-01-30T07:47:25;3.70;99.90
3300;DHT22;1662;49.310;8.134;2024-01-30T07:49:51;3.70;99.90
3300;DHT22;1662;49.310;8.134;2024-01-30T07:52:17;3.80;99.90
3300;DHT22;1662;49.310;8.134;2024-01-30T07:54:42;3.80;99.90
3300;DHT22;1662;49.310;8.134;2024-01-30T07:57:08;3.90;99.90
3300;DHT22;1662;49.310;8.134;2024-01-30T07:59:33;4.70;99.90
3300;DHT22;1662;49.310;8.134;2024-01-30T08:02:00;4.90;99.90
3300;DHT22;1662;49.310;8.134;2024-01-30T08:04:25;4.90;99.90
3300;DHT22;1662;49.310;8.134;2024-01-30T08:06:53;4.80;99.90
3300;DHT22;1662;49.310;8.134;2024-01-30T08:09:21;4.70;99.90
3300;DHT22;1662;49.310;8.134;2024-01-30T08:11:47;4.60;99.90
3300;DHT22;1662;49.310;8.134;2024-01-30T08:14:12;4.50;99.90
3300;DHT22;1662;49.310;8.134;2024-01-30T08:16:39;4.40;99.90
3300;DHT22;1662;49.310;8.134;2024-01-30T08:19:04;4.30;99.90
3300;DHT22;1662;49.310;8.134;2024-01-30T08:21:30;4.30;99.90
3300;DHT22;1662;49.310;8.134;2024-01-30T08:24:04;4.30;99.90
3300;DHT22;1662;49.310;8.134;2024-01-30T08:26:30;4.20;99.90
3300;DHT22;1662;49.310;8.134;2024-01-30T08:28:56;4.20;99.90
3300;DHT22;1662;49.310;8.134;2024-01-30T08:31:21;4.20;99.90
3300;DHT22;1662;49.310;8.134;2024-01-30T08:33:47;4.20;99.90
3300;DHT22;1662;49.310;8.134;2024-01-30T08:36:13;4.30;99.90
3300;DHT22;1662;49.310;8.134;2024-01-30T08:38:38;4.20;99.90
3300;DHT22;1662;49.310;8.134;2024-01-30T08:41:07;4.20;99.90
3300;DHT22;1662;49.310;8.134;2024-01-30T08:43:33;4.30;99.90
3300;DHT22;1662;49.310;8.134;2024-01-30T08:46:00;4.30;99.90
3300;DHT22;1662;49.310;8.134;2024-01-30T08:48:26;4.40;99.90
3300;DHT22;1662;49.310;8.134;2024-01-30T08:50:51;4.40;99.90
3300;DHT22;1662;49.310;8.134;2024-01-30T08:53:17;4.40;99.90
3300;DHT22;1662;49.310;8.134;2024-01-30T08:55:42;4.50;99.90
3300;DHT22;1662;49.310;8.134;2024-01-30T08:58:08;4.50;99.90
3300;DHT22;1662;49.310;8.134;2024-01-30T09:00:34;4.60;99.90
3300;DHT22;1662;49.310;8.134;2024-01-30T09:02:59;4.60;99.90
3300;DHT22;1662;49.310;8.134;2024-01-30T09:05:25;4.60;99.90
3300;DHT22;1662;49.310;8.134;2024-01-30T09:07:50;4.60;99.90
3300;DHT22;1662;49.310;8.134;2024-01-30T09:10:16;4.70;99.90
3300;DHT22;1662;49.310;8.134;2024-01-30T09:12:41;4.70;99.90
3300;DHT22;1662;49.310;8.134;2024-01-30T09:15:07;4.70;99.90
3300;DHT22;1662;49.310;8.134;2024-01-30T09:17:33;4.80;99.90
3300;DHT22;1662;49.310;8.134;2024-01-30T09:19:59;4.80;99.90
3300;DHT22;1662;49.310;8.134;2024-01-30T09:22:25;4.90;99.90
3300;DHT22;1662;49.310;8.134;2024-01-30T09:24:51;4.90;99.90
3300;DHT22;1662;49.310;8.134;2024-01-30T09:27:16;4.90;99.90
3300;DHT22;1662;49.310;8.134;2024-01-30T09:29:42;5.00;99.90
3300;DHT22;1662;49.310;8.134;2024-01-30T09:32:08;5.00;99.90
3300;DHT22;1662;49.310;8.134;2024-01-30T09:34:34;5.00;99.90
3300;DHT22;1662;49.310;8.134;2024-01-30T09:37:00;5.10;99.90
3300;DHT22;1662;49.310;8.134;2024-01-30T09:39:27;5.40;99.90
3300;DHT22;1662;49.310;8.134;2024-01-30T09:42:03;5.40;99.90
3300;DHT22;1662;49.310;8.134;2024-01-30T09:44:30;5.40;99.90
3300;DHT22;1662;49.310;8.134;2024-01-30T09:46:56;5.40;99.90
3300;DHT22;1662;49.310;8.134;2024-01-30T09:49:30;5.50;99.90
3300;DHT22;1662;49.310;8.134;2024-01-30T09:51:57;5.50;99.90
3300;DHT22;1662;49.310;8.134;2024-01-30T09:54:23;5.60;99.90
3300;DHT22;1662;49.310;8.134;2024-01-30T09:56:49;5.60;99.90
3300;DHT22;1662;49.310;8.134;2024-01-30T09:59:15;5.60;99.90
3300;DHT22;1662;49.310;8.134;2024-01-30T10:01:41;5.70;99.90
3300;DHT22;1662;49.310;8.134;2024-01-30T10:04:10;5.70;99.90
3300;DHT22;1662;49.310;8.134;2024-01-30T10:06:37;5.80;99.90
3300;DHT22;1662;49.310;8.134;2024-01-30T10:09:02;5.90;99.90
3300;DHT22;1662;49.310;8.134;2024-01-30T10:11:28;6.00;99.90
3300;DHT22;1662;49.310;8.134;2024-01-30T10:13:54;6.10;99.90
3300;DHT22;1662;49.310;8.134;2024-01-30T10:16:19;6.10;99.90
3300;DHT22;1662;49.310;8.134;2024-01-30T10:18:45;6.20;99.90
3300;DHT22;1662;49.310;8.134;2024-01-30T10:21:11;6.30;99.90
3300;DHT22;1662;49.310;8.134;2024-01-30T10:23:38;6.30;99.90
3300;DHT22;1662;49.310;8.134;2024-01-30T10:26:07;6.30;99.90
3300;DHT22;1662;49.310;8.134;2024-01-30T10:28:33;6.30;99.90
3300;DHT22;1662;49.310;8.134;2024-01-30T10:31:00;6.30;99.90
3300;DHT22;1662;49.310;8.134;2024-01-30T10:33:26;6.40;99.90
3300;DHT22;1662;49.310;8.134;2024-01-30T10:35:59;6.40;99.90
3300;DHT22;1662;49.310;8.134;2024-01-30T10:38:28;6.50;99.90
3300;DHT22;1662;49.310;8.134;2024-01-30T10:40:57;6.60;99.90
3300;DHT22;1662;49.310;8.134;2024-01-30T10:43:31;6.70;99.90
3300;DHT22;1662;49.310;8.134;2024-01-30T10:46:06;6.80;99.90
3300;DHT22;1662;49.310;8.134;2024-01-30T10:48:36;6.90;99.90
3300;DHT22;1662;49.310;8.134;2024-01-30T10:51:09;6.90;99.90
3300;DHT22;1662;49.310;8.134;2024-01-30T10:53:34;6.90;99.90
3300;DHT22;1662;49.310;8.134;2024-01-30T10:56:01;7.00;99.90
3300;DHT22;1662;49.310;8.134;2024-01-30T10:58:30;7.10;99.90
3300;DHT22;1662;49.310;8.134;2024-01-30T11:00:56;7.10;99.90
3300;DHT22;1662;49.310;8.134;2024-01-30T11:03:22;7.20;99.90
3300;DHT22;1662;49.310;8.134;2024-01-30T11:05:52;7.30;99.90
3300;DHT22;1662;49.310;8.134;2024-01-30T11:08:26;7.30;99.90
3300;DHT22;1662;49.310;8.134;2024-01-30T11:10:57;7.40;99.90
3300;DHT22;1662;49.310;8.134;2024-01-30T11:13:27;7.50;99.90
3300;DHT22;1662;49.310;8.134;2024-01-30T11:15:53;7.50;99.90
3300;DHT22;1662;49.310;8.134;2024-01-30T11:18:25;7.50;99.90
3300;DHT22;1662;49.310;8.134;2024-01-30T11:20:51;7.50;99.90
3300;DHT22;1662;49.310;8.134;2024-01-30T11:23:17;7.50;99.90
3300;DHT22;1662;49.310;8.134;2024-01-30T11:25:44;7.50;99.90
3300;DHT22;1662;49.310;8.134;2024-01-30T11:28:14;7.60;99.90
3300;DHT22;1662;49.310;8.134;2024-01-30T11:30:46;7.60;99.90
3300;DHT22;1662;49.310;8.134;2024-01-30T11:33:13;7.60;99.90
3300;DHT22;1662;49.310;8.134;2024-01-30T11:35:45;7.60;99.90
3300;DHT22;1662;49.310;8.134;2024-01-30T11:38:14;7.70;99.90
3300;DHT22;1662;49.310;8.134;2024-01-30T11:40:40;7.70;99.90
3300;DHT22;1662;49.310;8.134;2024-01-30T11:43:07;7.80;99.90
3300;DHT22;1662;49.310;8.134;2024-01-30T11:45:34;7.90;99.90
3300;DHT22;1662;49.310;8.134;2024-01-30T11:48:00;7.90;99.90
3300;DHT22;1662;49.310;8.134;2024-01-30T11:50:29;8.00;99.90
3300;DHT22;1662;49.310;8.134;2024-01-30T11:52:55;8.10;99.90
3300;DHT22;1662;49.310;8.134;2024-01-30T11:55:21;8.10;99.90
3300;DHT22;1662;49.310;8.134;2024-01-30T11:57:46;8.20;99.90
3300;DHT22;1662;49.310;8.134;2024-01-30T12:00:16;8.30;99.90
3300;DHT22;1662;49.310;8.134;2024-01-30T12:02:42;8.40;99.90
3300;DHT22;1662;49.310;8.134;2024-01-30T12:05:08;8.40;99.90
3300;DHT22;1662;49.310;8.134;2024-01-30T12:07:37;8.50;99.90
3300;DHT22;1662;49.310;8.134;2024-01-30T12:10:03;8.60;99.90
3300;DHT22;1662;49.310;8.134;2024-01-30T12:12:31;8.70;99.90
3300;DHT22;1662;49.310;8.134;2024-01-30T12:14:57;8.70;99.90
3300;DHT22;1662;49.310;8.134;2024-01-30T12:17:33;8.80;99.90
3300;DHT22;1662;49.310;8.134;2024-01-30T12:20:21;8.90;99.90
3300;DHT22;1662;49.310;8.134;2024-01-30T12:22:48;8.90;99.90
3300;DHT22;1662;49.310;8.134;2024-01-30T12:25:20;8.90;99.90
3300;DHT22;1662;49.310;8.134;2024-01-30T12:27:47;9.00;99.90
3300;DHT22;1662;49.310;8.134;2024-01-30T12:30:16;9.10;99.90
3300;DHT22;1662;49.310;8.134;2024-01-30T12:32:43;9.20;99.90
3300;DHT22;1662;49.310;8.134;2024-01-30T12:35:19;9.30;99.90
3300;DHT22;1662;49.310;8.134;2024-01-30T12:37:46;9.50;99.90
3300;DHT22;1662;49.310;8.134;2024-01-30T12:40:13;9.60;99.90
3300;DHT22;1662;49.310;8.134;2024-01-30T12:42:40;9.70;99.90
3300;DHT22;1662;49.310;8.134;2024-01-30T12:45:07;9.70;99.90
3300;DHT22;1662;49.310;8.134;2024-01-30T12:47:33;9.70;99.90
3300;DHT22;1662;49.310;8.134;2024-01-30T12:49:59;9.70;99.90
3300;DHT22;1662;49.310;8.134;2024-01-30T12:52:24;9.70;99.90
3300;DHT22;1662;49.310;8.134;2024-01-30T12:54:50;9.80;99.90
3300;DHT22;1662;49.310;8.134;2024-01-30T12:57:16;9.80;99.90
3300;DHT22;1662;49.310;8.134;2024-01-30T12:59:43;9.80;99.90
3300;DHT22;1662;49.310;8.134;2024-01-30T13:02:09;9.80;99.90
3300;DHT22;1662;49.310;8.134;2024-01-30T13:04:35;9.80;99.90
3300;DHT22;1662;49.310;8.134;2024-01-30T13:07:02;9.80;99.90
3300;DHT22;1662;49.310;8.134;2024-01-30T13:09:29;9.80;99.90
3300;DHT22;1662;49.310;8.134;2024-01-30T13:11:55;9.80;99.90
3300;DHT22;1662;49.310;8.134;2024-01-30T13:14:20;9.80;99.90
3300;DHT22;1662;49.310;8.134;2024-01-30T13:16:46;9.90;99.90
3300;DHT22;1662;49.310;8.134;2024-01-30T13:19:12;9.90;99.90
3300;DHT22;1662;49.310;8.134;2024-01-30T13:21:37;9.90;99.90
3300;DHT22;1662;49.310;8.134;2024-01-30T13:24:03;10.00;99.90
3300;DHT22;1662;49.310;8.134;2024-01-30T13:26:29;10.00;99.90
3300;DHT22;1662;49.310;8.134;2024-01-30T13:28:56;10.00;99.90
3300;DHT22;1662;49.310;8.134;2024-01-30T13:31:22;10.10;99.90
3300;DHT22;1662;49.310;8.134;2024-01-30T13:33:47;10.10;99.90
3300;DHT22;1662;49.310;8.134;2024-01-30T13:36:16;10.10;99.90
3300;DHT22;1662;49.310;8.134;2024-01-30T13:38:42;10.20;99.90
3300;DHT22;1662;49.310;8.134;2024-01-30T13:41:10;10.30;99.90
3300;DHT22;1662;49.310;8.134;2024-01-30T13:43:35;10.70;99.90
3300;DHT22;1662;49.310;8.134;2024-01-30T13:46:01;11.00;99.90
3300;DHT22;1662;49.310;8.134;2024-01-30T13:48:27;11.30;99.90
3300;DHT22;1662;49.310;8.134;2024-01-30T13:50:53;11.40;99.90
3300;DHT22;1662;49.310;8.134;2024-01-30T13:53:19;11.30;99.90
3300;DHT22;1662;49.310;8.134;2024-01-30T13:55:45;11.20;99.90
3300;DHT22;1662;49.310;8.134;2024-01-30T13:58:11;11.10;99.90
3300;DHT22;1662;49.310;8.134;2024-01-30T14:00:36;11.10;99.90
3300;DHT22;1662;49.310;8.134;2024-01-30T14:03:02;11.10;99.90
3300;DHT22;1662;49.310;8.134;2024-01-30T14:05:28;11.10;99.90
3300;DHT22;1662;49.310;8.134;2024-01-30T14:07:54;11.00;99.90
3300;DHT22;1662;49.310;8.134;2024-01-30T14:10:20;11.00;99.90
3300;DHT22;1662;49.310;8.134;2024-01-30T14:12:49;11.00;99.90
3300;DHT22;1662;49.310;8.134;2024-01-30T14:15:15;11.00;99.90
3300;DHT22;1662;49.310;8.134;2024-01-30T14:17:43;11.00;99.90
3300;DHT22;1662;49.310;8.134;2024-01-30T14:20:09;11.10;99.90
3300;DHT22;1662;49.310;8.134;2024-01-30T14:22:36;11.10;99.90
3300;DHT22;1662;49.310;8.134;2024-01-30T14:25:01;11.00;99.90
3300;DHT22;1662;49.310;8.134;2024-01-30T14:27:29;11.00;99.90
3300;DHT22;1662;49.310;8.134;2024-01-30T14:29:56;10.90;99.90
3300;DHT22;1662;49.310;8.134;2024-01-30T14:32:22;10.80;99.90
3300;DHT22;1662;49.310;8.134;2024-01-30T14:34:48;10.80;99.90
3300;DHT22;1662;49.310;8.134;2024-01-30T14:37:17;10.70;99.90
3300;DHT22;1662;49.310;8.134;2024-01-30T14:39:42;10.60;99.90
3300;DHT22;1662;49.310;8.134;2024-01-30T14:42:08;10.60;99.90
3300;DHT22;1662;49.310;8.134;2024-01-30T14:44:34;10.50;99.90
3300;DHT22;1662;49.310;8.134;2024-01-30T14:47:00;10.50;99.90
3300;DHT22;1662;49.310;8.134;2024-01-30T14:49:26;10.50;99.90
3300;DHT22;1662;49.310;8.134;2024-01-30T14:51:51;10.40;99.90
3300;DHT22;1662;49.310;8.134;2024-01-30T14:54:17;10.40;99.90
3300;DHT22;1662;49.310;8.134;2024-01-30T14:56:44;10.40;99.90
3300;DHT22;1662;49.310;8.134;2024-01-30T14:59:09;10.40;99.90
3300;DHT22;1662;49.310;8.134;2024-01-30T15:01:35;10.30;99.90
3300;DHT22;1662;49.310;8.134;2024-01-30T15:04:01;10.30;99.90
3300;DHT22;1662;49.310;8.134;2024-01-30T15:06:26;10.30;99.90
3300;DHT22;1662;49.310;8.134;2024-01-30T15:08:53;10.20;99.90
3300;DHT22;1662;49.310;8.134;2024-01-30T15:11:18;10.20;99.90
3300;DHT22;1662;49.310;8.134;2024-01-30T15:13:44;10.20;99.90
3300;DHT22;1662;49.310;8.134;2024-01-30T15:16:10;10.20;99.90
3300;DHT22;1662;49.310;8.134;2024-01-30T15:18:36;10.20;99.90
3300;DHT22;1662;49.310;8.134;2024-01-30T15:21:01;10.10;99.90
3300;DHT22;1662;49.310;8.134;2024-01-30T15:23:27;10.10;99.90
3300;DHT22;1662;49.310;8.134;2024-01-30T15:25:53;10.10;99.90
3300;DHT22;1662;49.310;8.134;2024-01-30T15:28:18;10.00;99.90
3300;DHT22;1662;49.310;8.134;2024-01-30T15:30:44;10.00;99.90
3300;DHT22;1662;49.310;8.134;2024-01-30T15:33:10;10.00;99.90
3300;DHT22;1662;49.310;8.134;2024-01-30T15:35:36;9.90;99.90
3300;DHT22;1662;49.310;8.134;2024-01-30T15:38:04;9.90;99.90
3300;DHT22;1662;49.310;8.134;2024-01-30T15:40:33;9.80;99.90
3300;DHT22;1662;49.310;8.134;2024-01-30T15:42:59;9.80;99.90
3300;DHT22;1662;49.310;8.134;2024-01-30T15:45:25;9.80;99.90
3300;DHT22;1662;49.310;8.134;2024-01-30T15:47:50;9.80;99.90
3300;DHT22;1662;49.310;8.134;2024-01-30T15:50:16;9.80;99.90
3300;DHT22;1662;49.310;8.134;2024-01-30T15:52:41;9.80;99.90
3300;DHT22;1662;49.310;8.134;2024-01-30T15:55:07;9.80;99.90
3300;DHT22;1662;49.310;8.134;2024-01-30T15:57:32;9.80;99.90
3300;DHT22;1662;49.310;8.134;2024-01-30T15:59:58;9.80;99.90
3300;DHT22;1662;49.310;8.134;2024-01-30T16:02:26;9.80;99.90
3300;DHT22;1662;49.310;8.134;2024-01-30T16:04:54;9.80;99.90
3300;DHT22;1662;49.310;8.134;2024-01-30T16:07:20;9.80;99.90
3300;DHT22;1662;49.310;8.134;2024-01-30T16:09:45;9.70;99.90